createdAt,value
2019-02-14T00:01:15.365Z,101650.65
2019-02-14T00:03:41.489Z,101620.16
2019-02-14T00:06:07.377Z,101655.89
2019-02-14T00:08:33.256Z,101670.33
2019-02-14T00:10:59.312Z,101667.72
2019-02-14T00:13:25.178Z,101665.09
2019-02-14T00:15:51.019Z,101657.20
2019-02-14T00:18:17.214Z,101648.02
2019-02-14T00:20:43.079Z,101641.91
2019-02-14T00:23:08.907Z,101633.56
2019-02-14T00:25:35.048Z,101623.05
2019-02-14T00:28:00.918Z,101629.19
2019-02-14T00:30:26.772Z,101646.70
2019-02-14T00:32:52.877Z,101659.01
2019-02-14T00:35:24.850Z,101659.45
2019-02-14T00:37:46.416Z,101661.20
2019-02-14T00:40:12.567Z,101659.89
2019-02-14T00:42:38.445Z,101670.84
2019-02-14T00:45:05.322Z,101675.65
2019-02-14T00:47:31.428Z,101673.02
2019-02-14T00:49:57.305Z,101681.81
2019-02-14T00:52:23.160Z,101701.94
2019-02-14T00:54:49.248Z,101709.81
2019-02-14T00:57:15.127Z,101717.69
2019-02-14T00:59:41.039Z,101728.63
2019-02-14T01:02:07.247Z,101735.19
2019-02-14T01:04:33.087Z,101740.02
2019-02-14T01:06:58.957Z,101736.08
2019-02-14T01:09:25.061Z,101730.83
2019-02-14T01:11:50.946Z,101717.27
2019-02-14T01:14:16.892Z,101725.56
2019-02-14T01:16:42.942Z,101728.61
2019-02-14T01:19:08.930Z,101732.11
2019-02-14T01:21:34.845Z,101726.44
2019-02-14T01:24:00.798Z,101721.17
2019-02-14T01:26:26.626Z,101722.91
2019-02-14T01:28:52.495Z,101718.55
2019-02-14T01:31:18.709Z,101717.23
2019-02-14T01:33:44.635Z,101724.22
2019-02-14T01:36:10.607Z,101722.91
2019-02-14T01:38:36.670Z,101722.47
2019-02-14T01:41:02.724Z,101723.34
2019-02-14T01:43:28.809Z,101723.34
2019-02-14T01:45:54.769Z,101713.27
2019-02-14T01:48:20.624Z,101726.39
2019-02-14T01:50:46.525Z,101730.31
2019-02-14T01:53:12.624Z,101714.55
2019-02-14T01:55:38.477Z,101712.34
2019-02-14T01:58:05.266Z,101718.48
2019-02-14T02:00:31.466Z,101717.16
2019-02-14T02:02:57.352Z,101705.78
2019-02-14T02:05:23.198Z,101718.92
2019-02-14T02:07:49.355Z,101723.73
2019-02-14T02:10:15.539Z,101730.31
2019-02-14T02:12:41.408Z,101722.01
2019-02-14T02:15:08.861Z,101727.26
2019-02-14T02:17:34.709Z,101732.04
2019-02-14T02:20:00.591Z,101723.30
2019-02-14T02:22:26.740Z,101714.95
2019-02-14T02:24:52.759Z,101722.41
2019-02-14T02:27:18.609Z,101724.13
2019-02-14T02:29:44.756Z,101719.34
2019-02-14T02:32:10.651Z,101716.70
2019-02-14T02:34:36.513Z,101715.81
2019-02-14T02:37:02.627Z,101714.94
2019-02-14T02:39:28.475Z,101720.20
2019-02-14T02:41:54.349Z,101721.97
2019-02-14T02:44:20.423Z,101713.63
2019-02-14T02:46:46.308Z,101718.88
2019-02-14T02:49:12.137Z,101717.14
2019-02-14T02:51:38.203Z,101718.02
2019-02-14T02:54:04.188Z,101725.00
2019-02-14T02:56:30.065Z,101726.31
2019-02-14T02:58:56.173Z,101724.11
2019-02-14T03:01:22.165Z,101721.05
2019-02-14T03:03:48.132Z,101711.44
2019-02-14T03:06:14.250Z,101704.44
2019-02-14T03:08:40.118Z,101689.56
2019-02-14T03:11:06.063Z,101676.43
2019-02-14T03:13:32.219Z,101665.92
2019-02-14T03:15:58.087Z,101660.66
2019-02-14T03:18:23.987Z,101667.64
2019-02-14T03:20:50.087Z,101667.63
2019-02-14T03:23:15.984Z,101666.78
2019-02-14T03:25:41.883Z,101664.58
2019-02-14T03:28:07.914Z,101666.77
2019-02-14T03:30:33.887Z,101671.56
2019-02-14T03:32:59.761Z,101668.50
2019-02-14T03:35:25.885Z,101662.39
2019-02-14T03:37:51.740Z,101667.22
2019-02-14T03:40:17.715Z,101672.91
2019-02-14T03:42:43.770Z,101660.25
2019-02-14T03:45:13.946Z,101664.63
2019-02-14T03:47:39.901Z,101667.69
2019-02-14T03:50:07.732Z,101670.33
2019-02-14T03:52:33.612Z,101680.86
2019-02-14T03:54:59.564Z,101681.34
2019-02-14T03:57:25.893Z,101683.56
2019-02-14T03:59:51.775Z,101683.56
2019-02-14T04:02:17.774Z,101677.41
2019-02-14T04:04:43.823Z,101678.69
2019-02-14T04:07:09.750Z,101680.87
2019-02-14T04:09:35.594Z,101677.80
2019-02-14T04:12:01.755Z,101675.15
2019-02-14T04:14:27.644Z,101676.03
2019-02-14T04:16:53.736Z,101672.52
2019-02-14T04:19:19.908Z,101661.56
2019-02-14T04:21:45.862Z,101644.48
2019-02-14T04:24:11.841Z,101639.64
2019-02-14T04:26:37.782Z,101640.08
2019-02-14T04:29:03.662Z,101614.38
2019-02-14T04:31:29.603Z,101649.73
2019-02-14T04:33:55.648Z,101653.66
2019-02-14T04:36:21.632Z,101647.53
2019-02-14T04:38:47.466Z,101640.55
2019-02-14T04:41:13.590Z,101640.55
2019-02-14T04:43:39.463Z,101641.40
2019-02-14T04:46:05.319Z,101635.70
2019-02-14T04:48:31.468Z,101631.77
2019-02-14T04:50:57.367Z,101631.75
2019-02-14T04:53:23.276Z,101626.07
2019-02-14T04:55:49.418Z,101601.53
2019-02-14T04:58:15.251Z,101603.71
2019-02-14T05:00:42.871Z,101592.32
2019-02-14T05:03:08.998Z,101582.23
2019-02-14T05:05:34.882Z,101579.17
2019-02-14T05:08:00.838Z,101580.52
2019-02-14T05:10:26.956Z,101580.95
2019-02-14T05:12:52.914Z,101575.27
2019-02-14T05:15:18.891Z,101556.88
2019-02-14T05:17:45.024Z,101555.13
2019-02-14T05:20:11.138Z,101544.61
2019-02-14T05:22:36.983Z,101540.19
2019-02-14T05:25:04.070Z,101542.80
2019-02-14T05:27:29.917Z,101533.19
2019-02-14T05:29:55.771Z,101509.97
2019-02-14T05:32:21.966Z,101512.16
2019-02-14T05:34:47.854Z,101499.03
2019-02-14T05:37:13.717Z,101502.55
2019-02-14T05:39:39.734Z,101493.36
2019-02-14T05:42:05.608Z,101472.78
2019-02-14T05:44:31.614Z,101470.57
2019-02-14T05:46:57.621Z,101458.73
2019-02-14T05:49:23.569Z,101457.88
2019-02-14T05:51:49.529Z,101422.58
2019-02-14T05:54:15.570Z,101453.03
2019-02-14T05:56:41.461Z,101449.98
2019-02-14T05:59:07.329Z,101460.03
2019-02-14T06:01:33.341Z,101448.66
2019-02-14T06:03:59.233Z,101450.41
2019-02-14T06:06:25.204Z,101453.05
2019-02-14T06:08:51.162Z,101447.37
2019-02-14T06:11:17.027Z,101439.91
2019-02-14T06:13:42.970Z,101434.63
2019-02-14T06:16:09.168Z,101437.23
2019-02-14T06:18:35.055Z,101439.00
2019-02-14T06:21:00.916Z,101433.30
2019-02-14T06:23:27.008Z,101439.45
2019-02-14T06:25:52.853Z,101439.02
2019-02-14T06:28:18.723Z,101422.79
2019-02-14T06:30:44.661Z,101421.91
2019-02-14T06:33:10.513Z,101409.62
2019-02-14T06:35:36.369Z,101403.90
2019-02-14T06:38:02.574Z,101402.56
2019-02-14T06:40:28.420Z,101396.41
2019-02-14T06:42:54.253Z,101388.51
2019-02-14T06:45:20.412Z,101393.75
2019-02-14T06:47:46.288Z,101399.47
2019-02-14T06:50:12.311Z,101402.09
2019-02-14T06:52:40.243Z,101406.04
2019-02-14T06:55:06.491Z,101406.41
2019-02-14T06:57:32.389Z,101404.19
2019-02-14T06:59:58.613Z,101394.55
2019-02-14T07:02:24.627Z,101396.71
2019-02-14T07:04:50.475Z,101394.48
2019-02-14T07:07:18.571Z,101381.31
2019-02-14T07:09:44.284Z,101391.81
2019-02-14T07:12:10.264Z,101387.44
2019-02-14T07:14:36.328Z,101393.55
2019-02-14T07:17:02.166Z,101392.22
2019-02-14T07:19:28.047Z,101381.69
2019-02-14T07:21:54.122Z,101386.94
2019-02-14T07:24:20.010Z,101374.23
2019-02-14T07:26:45.900Z,101377.72
2019-02-14T07:29:12.040Z,101375.08
2019-02-14T07:31:37.897Z,101361.93
2019-02-14T07:34:04.121Z,101360.59
2019-02-14T07:36:30.137Z,101350.08
2019-02-14T07:38:56.030Z,101348.30
2019-02-14T07:41:21.907Z,101343.92
2019-02-14T07:43:48.008Z,101334.29
2019-02-14T07:46:22.353Z,101338.66
2019-02-14T07:48:41.754Z,101344.34
2019-02-14T07:51:07.860Z,101339.94
2019-02-14T07:53:33.768Z,101329.41
2019-02-14T07:55:59.640Z,101324.55
2019-02-14T07:58:25.858Z,101326.73
2019-02-14T08:00:51.798Z,101318.36
2019-02-14T08:03:17.658Z,101310.86
2019-02-14T08:05:43.611Z,101299.42
2019-02-14T08:08:09.795Z,101306.83
2019-02-14T08:10:35.673Z,101297.58
2019-02-14T08:13:01.625Z,101285.28
2019-02-14T08:15:27.480Z,101295.73
2019-02-14T08:17:53.466Z,101289.55
2019-02-14T08:20:20.319Z,101271.08
2019-02-14T08:22:46.215Z,101264.92
2019-02-14T08:25:12.299Z,101256.11
2019-02-14T08:27:38.354Z,101268.34
2019-02-14T08:30:12.153Z,101264.36
2019-02-14T08:32:38.128Z,101260.41
2019-02-14T08:35:06.529Z,101251.17
2019-02-14T08:37:32.530Z,101238.00
2019-02-14T08:39:58.405Z,101228.36
2019-02-14T08:42:24.556Z,101223.09
2019-02-14T08:44:50.451Z,101224.81
2019-02-14T08:47:16.427Z,101209.91
2019-02-14T08:49:42.469Z,101202.43
2019-02-14T08:52:08.458Z,101204.59
2019-02-14T08:54:34.334Z,101210.30
2019-02-14T08:57:00.442Z,101209.88
2019-02-14T08:59:26.451Z,101201.06
2019-02-14T09:01:52.347Z,101182.64
2019-02-14T09:04:18.310Z,101151.95
2019-02-14T09:06:44.166Z,101141.86
2019-02-14T09:09:10.080Z,101134.41
2019-02-14T09:11:36.210Z,101129.56
2019-02-14T09:14:02.087Z,101139.20
2019-02-14T09:16:27.945Z,101134.82
2019-02-14T09:18:53.978Z,101137.45
2019-02-14T09:21:19.933Z,101133.09
2019-02-14T09:23:45.786Z,101118.66
2019-02-14T09:26:11.920Z,101121.70
2019-02-14T09:28:37.817Z,101103.31
2019-02-14T09:31:03.690Z,101096.73
2019-02-14T09:33:29.878Z,101092.38
2019-02-14T09:35:55.738Z,101087.53
2019-02-14T09:38:21.651Z,101074.00
2019-02-14T09:40:47.874Z,101067.86
2019-02-14T09:43:13.753Z,101067.42
2019-02-14T09:45:39.734Z,101064.83
2019-02-14T09:48:05.657Z,101044.22
2019-02-14T09:50:31.526Z,101041.16
2019-02-14T09:52:57.419Z,101034.14
2019-02-14T09:55:23.483Z,101031.98
2019-02-14T09:57:49.400Z,101028.03
2019-02-14T10:00:15.793Z,101008.34
2019-02-14T10:02:43.866Z,101016.23
2019-02-14T10:05:09.812Z,101002.23
2019-02-14T10:07:35.723Z,100993.47
2019-02-14T10:10:01.864Z,100989.55
2019-02-14T10:12:27.918Z,100997.88
2019-02-14T10:14:53.806Z,100994.81
2019-02-14T10:17:22.243Z,100986.48
2019-02-14T10:19:47.511Z,100983.85
2019-02-14T10:22:13.388Z,100972.45
2019-02-14T10:24:39.525Z,100978.16
2019-02-14T10:27:05.409Z,100961.46
2019-02-14T10:29:31.397Z,100950.94
2019-02-14T10:31:57.589Z,100928.98
2019-02-14T10:34:23.454Z,100932.09
2019-02-14T10:36:49.386Z,100925.92
2019-02-14T10:39:15.553Z,100914.52
2019-02-14T10:41:41.424Z,100903.16
2019-02-14T10:44:07.315Z,100896.11
2019-02-14T10:46:35.606Z,100871.13
2019-02-14T10:49:01.188Z,100874.63
2019-02-14T10:51:27.069Z,100878.58
2019-02-14T10:53:53.089Z,100876.35
2019-02-14T10:56:18.938Z,100855.31
2019-02-14T10:58:44.841Z,100863.16
2019-02-14T11:01:11.078Z,100870.21
2019-02-14T11:03:37.045Z,100871.94
2019-02-14T11:06:02.935Z,100864.44
2019-02-14T11:08:31.542Z,100865.72
2019-02-14T11:10:56.736Z,100860.90
2019-02-14T11:13:22.599Z,100860.86
2019-02-14T11:15:48.700Z,100861.70
2019-02-14T11:18:14.886Z,100825.31
2019-02-14T11:20:41.021Z,100825.67
2019-02-14T11:23:07.117Z,100838.39
2019-02-14T11:25:33.912Z,100834.45
2019-02-14T11:27:59.748Z,100823.05
2019-02-14T11:30:25.902Z,100814.72
2019-02-14T11:32:51.733Z,100809.89
2019-02-14T11:35:17.597Z,100807.22
2019-02-14T11:37:43.721Z,100798.89
2019-02-14T11:40:11.468Z,100805.06
2019-02-14T11:42:37.419Z,100785.78
2019-02-14T11:45:05.475Z,100780.04
2019-02-14T11:47:31.459Z,100762.06
2019-02-14T11:49:57.332Z,100769.48
2019-02-14T11:52:23.530Z,100725.64
2019-02-14T11:54:49.401Z,100747.52
2019-02-14T11:57:15.264Z,100727.39
2019-02-14T11:59:41.398Z,100786.58
2019-02-14T12:02:07.343Z,100795.78
2019-02-14T12:04:33.170Z,100783.91
2019-02-14T12:06:59.333Z,100782.12
2019-02-14T12:09:25.360Z,100784.27
2019-02-14T12:11:51.514Z,100764.53
2019-02-14T12:14:17.446Z,100763.63
2019-02-14T12:16:43.320Z,100763.18
2019-02-14T12:19:09.172Z,100749.95
2019-02-14T12:21:35.281Z,100752.14
2019-02-14T12:24:01.227Z,100737.15
2019-02-14T12:26:27.102Z,100725.70
2019-02-14T12:28:53.186Z,100721.72
2019-02-14T12:31:19.035Z,100728.25
2019-02-14T12:33:44.874Z,100736.98
2019-02-14T12:36:11.032Z,100776.02
2019-02-14T12:38:36.925Z,100780.80
2019-02-14T12:41:02.856Z,100771.08
2019-02-14T12:43:28.997Z,100775.42
2019-02-14T12:45:54.868Z,100796.00
2019-02-14T12:48:20.709Z,100805.64
2019-02-14T12:50:46.755Z,100804.29
2019-02-14T12:53:12.600Z,100809.99
2019-02-14T12:55:38.447Z,100813.94
2019-02-14T12:58:04.600Z,100826.66
2019-02-14T13:00:30.453Z,100809.07
2019-02-14T13:02:56.336Z,100798.95
2019-02-14T13:05:22.348Z,100801.09
2019-02-14T13:07:48.209Z,100790.48
2019-02-14T13:10:14.970Z,100774.61
2019-02-14T13:12:41.101Z,100765.31
2019-02-14T13:15:11.046Z,100766.06
2019-02-14T13:17:36.937Z,100722.19
2019-02-14T13:20:03.162Z,100669.49
2019-02-14T13:22:29.039Z,100632.67
2019-02-14T13:24:54.895Z,100647.20
2019-02-14T13:27:20.898Z,100682.74
2019-02-14T13:29:46.796Z,100728.37
2019-02-14T13:32:13.672Z,100722.27
2019-02-14T13:34:39.742Z,100739.38
2019-02-14T13:37:06.094Z,100739.42
2019-02-14T13:39:32.707Z,100745.61
2019-02-14T13:41:58.945Z,100755.27
2019-02-14T13:44:24.814Z,100745.17
2019-02-14T13:46:50.662Z,100746.45
2019-02-14T13:49:16.893Z,100745.52
2019-02-14T13:51:42.780Z,100739.26
2019-02-14T13:54:08.628Z,100728.24
2019-02-14T13:56:34.628Z,100725.88
2019-02-14T13:59:00.484Z,100722.19
2019-02-14T14:01:26.363Z,100733.30
2019-02-14T14:03:52.441Z,100726.53
2019-02-14T14:06:18.289Z,100717.61
2019-02-14T14:08:44.246Z,100709.52
2019-02-14T14:11:10.303Z,100709.52
2019-02-14T14:13:36.162Z,100709.20
2019-02-14T14:16:02.145Z,100701.98
2019-02-14T14:18:28.273Z,100707.55
2019-02-14T14:20:54.148Z,100706.09
2019-02-14T14:23:20.057Z,100693.21
2019-02-14T14:25:46.074Z,100684.27
2019-02-14T14:28:11.914Z,100674.95
2019-02-14T14:30:37.787Z,100662.11
2019-02-14T14:33:03.869Z,100649.80
2019-02-14T14:35:29.845Z,100646.29
2019-02-14T14:37:55.720Z,100635.35
2019-02-14T14:40:21.798Z,100620.45
2019-02-14T14:42:52.574Z,100611.62
2019-02-14T14:45:23.506Z,100604.59
2019-02-14T14:47:49.403Z,100598.79
2019-02-14T14:50:15.250Z,100597.84
2019-02-14T14:52:41.323Z,100600.43
2019-02-14T14:55:07.276Z,100598.58
2019-02-14T14:57:33.139Z,100586.61
2019-02-14T14:59:59.240Z,100574.59
2019-02-14T15:02:25.120Z,100559.98
2019-02-14T15:04:51.002Z,100551.46
2019-02-14T15:07:17.043Z,100562.72
2019-02-14T15:09:42.888Z,100568.77
2019-02-14T15:12:08.770Z,100571.23
2019-02-14T15:14:34.807Z,100573.28
2019-02-14T15:17:00.682Z,100582.41
2019-02-14T15:19:26.514Z,100583.67
2019-02-14T15:21:52.585Z,100597.23
2019-02-14T15:24:18.391Z,100587.08
2019-02-14T15:26:44.226Z,100583.02
2019-02-14T15:29:10.370Z,100592.64
2019-02-14T15:31:36.240Z,100591.69
2019-02-14T15:34:02.112Z,100590.31
2019-02-14T15:36:28.318Z,100589.00
2019-02-14T15:38:54.200Z,100590.38
2019-02-14T15:41:20.074Z,100585.98
2019-02-14T15:43:46.079Z,100586.52
2019-02-14T15:46:11.942Z,100594.44
2019-02-14T15:48:37.802Z,100597.13
2019-02-14T15:51:03.746Z,100599.83
2019-02-14T15:53:29.596Z,100607.73
2019-02-14T15:55:55.470Z,100612.59
2019-02-14T15:58:21.466Z,100611.27
2019-02-14T16:00:49.413Z,100602.57
2019-02-14T16:03:17.294Z,100601.25
2019-02-14T16:05:42.894Z,100604.34
2019-02-14T16:08:08.763Z,100608.29
2019-02-14T16:10:34.702Z,100608.29
2019-02-14T16:13:00.684Z,100614.89
2019-02-14T16:15:26.624Z,100619.23
2019-02-14T16:17:52.506Z,100603.36
2019-02-14T16:20:19.849Z,100606.86
2019-02-14T16:22:45.776Z,100609.55
2019-02-14T16:25:11.665Z,100595.44
2019-02-14T16:27:37.746Z,100596.66
2019-02-14T16:30:07.104Z,100594.33
2019-02-14T16:32:32.689Z,100586.19
2019-02-14T16:34:58.688Z,100584.77
2019-02-14T16:37:24.635Z,100574.09
2019-02-14T16:39:52.569Z,100564.24
2019-02-14T16:42:19.521Z,100557.98
2019-02-14T16:44:45.403Z,100554.78
2019-02-14T16:47:11.229Z,100544.55
2019-02-14T16:49:37.287Z,100547.95
2019-02-14T16:52:03.230Z,100550.36
2019-02-14T16:54:29.083Z,100555.16
2019-02-14T16:56:55.112Z,100547.66
2019-02-14T16:59:20.963Z,100559.03
2019-02-14T17:01:46.811Z,100551.33
2019-02-14T17:04:12.817Z,100554.94
2019-02-14T17:06:38.694Z,100547.23
2019-02-14T17:09:04.867Z,100555.39
2019-02-14T17:11:31.020Z,100561.25
2019-02-14T17:13:57.133Z,100570.84
2019-02-14T17:16:23.039Z,100567.84
2019-02-14T17:18:49.066Z,100575.66
2019-02-14T17:21:14.941Z,100580.36
2019-02-14T17:23:40.911Z,100574.56
2019-02-14T17:26:07.044Z,100587.92
2019-02-14T17:28:33.034Z,100533.29
2019-02-14T17:30:58.896Z,100580.42
2019-02-14T17:33:24.916Z,100586.16
2019-02-14T17:35:50.809Z,100580.06
2019-02-14T17:38:16.642Z,100584.02
2019-02-14T17:40:45.998Z,100575.58
2019-02-14T17:43:10.336Z,100573.45
2019-02-14T17:45:36.298Z,100567.65
2019-02-14T17:48:02.544Z,100571.94
2019-02-14T17:50:28.374Z,100581.67
2019-02-14T17:52:54.244Z,100575.06
2019-02-14T17:55:20.248Z,100581.19
2019-02-14T17:57:46.102Z,100580.17
2019-02-14T18:00:12.464Z,100570.30
2019-02-14T18:02:38.411Z,100572.77
2019-02-14T18:05:05.279Z,100576.73
2019-02-14T18:07:31.129Z,100577.15
2019-02-14T18:09:57.145Z,100577.09
2019-02-14T18:12:23.036Z,100580.50
2019-02-14T18:14:48.823Z,100582.25
2019-02-14T18:17:14.888Z,100585.41
2019-02-14T18:19:40.738Z,100584.89
2019-02-14T18:22:06.569Z,100590.92
2019-02-14T18:24:32.594Z,100594.34
2019-02-14T18:26:58.448Z,100588.91
2019-02-14T18:29:24.325Z,100595.00
2019-02-14T18:31:50.342Z,100612.06
2019-02-14T18:34:16.209Z,100615.09
2019-02-14T18:36:42.248Z,100606.06
2019-02-14T18:39:08.494Z,100607.45
2019-02-14T18:41:34.497Z,100613.36
2019-02-14T18:44:00.668Z,100610.66
2019-02-14T18:46:26.851Z,100612.30
2019-02-14T18:48:52.699Z,100621.56
2019-02-14T18:51:18.577Z,100612.78
2019-02-14T18:53:44.718Z,100630.37
2019-02-14T18:56:10.593Z,100623.23
2019-02-14T18:58:36.481Z,100635.47
2019-02-14T19:01:02.517Z,100636.20
2019-02-14T19:03:28.405Z,100645.86
2019-02-14T19:05:54.263Z,100646.18
2019-02-14T19:08:20.498Z,100656.19
2019-02-14T19:10:46.448Z,100638.53
2019-02-14T19:13:12.351Z,100653.92
2019-02-14T19:15:38.283Z,100659.16
2019-02-14T19:18:04.284Z,100660.48
2019-02-14T19:20:30.186Z,100662.16
2019-02-14T19:22:56.321Z,100675.78
2019-02-14T19:25:22.187Z,100663.41
2019-02-14T19:27:48.048Z,100681.39
2019-02-14T19:30:14.267Z,100674.33
2019-02-14T19:32:40.160Z,100650.05
2019-02-14T19:35:07.919Z,100674.20
2019-02-14T19:37:34.053Z,100658.73
2019-02-14T19:39:59.916Z,100670.22
2019-02-14T19:42:25.906Z,100668.06
2019-02-14T19:44:51.950Z,100656.16
2019-02-14T19:47:17.817Z,100657.92
2019-02-14T19:49:43.709Z,100662.80
2019-02-14T19:52:11.905Z,100656.73
2019-02-14T19:54:37.339Z,100671.68
2019-02-14T19:57:03.314Z,100663.35
2019-02-14T19:59:29.428Z,100662.55
2019-02-14T20:01:55.313Z,100678.94
2019-02-14T20:04:21.169Z,100679.88
2019-02-14T20:06:47.192Z,100680.81
2019-02-14T20:09:13.182Z,100689.59
2019-02-14T20:11:39.174Z,100690.47
2019-02-14T20:14:05.292Z,100692.59
2019-02-14T20:16:31.142Z,100682.01
2019-02-14T20:18:57.081Z,100689.40
2019-02-14T20:21:23.237Z,100701.73
2019-02-14T20:23:49.084Z,100698.22
2019-02-14T20:26:15.060Z,100700.05
2019-02-14T20:28:41.029Z,100715.94
2019-02-14T20:31:06.878Z,100702.77
2019-02-14T20:33:32.733Z,100713.84
2019-02-14T20:35:58.819Z,100713.48
2019-02-14T20:38:24.663Z,100718.83
2019-02-14T20:40:50.560Z,100713.09
2019-02-14T20:43:16.656Z,100724.06
2019-02-14T20:45:42.539Z,100739.04
2019-02-14T20:48:08.514Z,100725.81
2019-02-14T20:50:34.655Z,100734.27
2019-02-14T20:53:00.625Z,100735.13
2019-02-14T20:55:26.535Z,100736.91
2019-02-14T20:57:52.561Z,100745.78
2019-02-14T21:00:26.020Z,100752.46
2019-02-14T21:02:51.858Z,100753.72
2019-02-14T21:05:17.935Z,100746.69
2019-02-14T21:07:43.924Z,100761.30
2019-02-14T21:10:09.911Z,100737.91
2019-02-14T21:12:36.059Z,100754.56
2019-02-14T21:15:02.038Z,100752.41
2019-02-14T21:17:27.921Z,100748.43
2019-02-14T21:19:53.870Z,100755.89
2019-02-14T21:22:19.760Z,100767.34
2019-02-14T21:24:45.903Z,100787.59
2019-02-14T21:27:11.945Z,100783.98
2019-02-14T21:29:37.755Z,100789.20
2019-02-14T21:32:03.763Z,100790.53
2019-02-14T21:34:29.786Z,100794.02
2019-02-14T21:36:55.666Z,100794.50
2019-02-14T21:39:21.724Z,100790.53
2019-02-14T21:41:47.945Z,100797.53
2019-02-14T21:44:13.800Z,100806.35
2019-02-14T21:46:39.770Z,100801.77
2019-02-14T21:49:05.833Z,100798.67
2019-02-14T21:51:31.773Z,100816.34
2019-02-14T21:53:57.737Z,100800.45
2019-02-14T21:56:23.702Z,100793.89
2019-02-14T21:58:49.552Z,100788.09
2019-02-14T22:01:17.285Z,100799.67
2019-02-14T22:03:43.479Z,100802.77
2019-02-14T22:06:09.320Z,100801.00
2019-02-14T22:08:35.322Z,100809.78
2019-02-14T22:11:01.568Z,100757.95
2019-02-14T22:13:27.796Z,100805.88
2019-02-14T22:15:53.678Z,100817.33
2019-02-14T22:18:19.680Z,100797.53
2019-02-14T22:20:45.534Z,100796.73
2019-02-14T22:23:11.424Z,100802.95
2019-02-14T22:25:37.631Z,100810.50
2019-02-14T22:28:03.620Z,100810.50
2019-02-14T22:30:29.481Z,100818.39
2019-02-14T22:32:55.523Z,100811.83
2019-02-14T22:35:21.482Z,100815.38
2019-02-14T22:37:47.326Z,100821.16
2019-02-14T22:40:13.472Z,100822.92
2019-02-14T22:42:46.731Z,100814.11
2019-02-14T22:45:08.571Z,100817.19
2019-02-14T22:47:34.696Z,100814.11
2019-02-14T22:50:00.528Z,100813.27
2019-02-14T22:52:26.408Z,100820.34
2019-02-14T22:54:52.360Z,100818.62
2019-02-14T22:57:18.212Z,100809.36
2019-02-14T22:59:44.076Z,100817.75
2019-02-14T23:02:10.280Z,100819.14
2019-02-14T23:04:36.209Z,100826.69
2019-02-14T23:07:02.269Z,100827.65
2019-02-14T23:09:28.269Z,100829.84
2019-02-14T23:11:54.139Z,100829.40
2019-02-14T23:14:20.032Z,100820.13
2019-02-14T23:16:46.160Z,100831.56
2019-02-14T23:19:12.017Z,100830.78
2019-02-14T23:21:37.892Z,100825.06
2019-02-14T23:24:03.958Z,100821.09
2019-02-14T23:26:29.832Z,100815.73
2019-02-14T23:28:55.681Z,100819.27
2019-02-14T23:31:21.790Z,100822.36
2019-02-14T23:33:47.676Z,100823.29
2019-02-14T23:36:13.646Z,100822.48
2019-02-14T23:38:40.052Z,100822.95
2019-02-14T23:41:05.932Z,100822.09
2019-02-14T23:43:31.800Z,100826.93
2019-02-14T23:45:57.934Z,100833.94
2019-02-14T23:48:23.793Z,100839.67
2019-02-14T23:50:49.673Z,100833.06
2019-02-14T23:53:15.797Z,100830.03
2019-02-14T23:55:41.683Z,100840.16
2019-02-14T23:58:07.535Z,100855.22
